createdAt,value
2018-08-11T00:01:19.034Z,58.90
2018-08-11T00:06:22.163Z,58.10
2018-08-11T00:11:25.208Z,58.40
2018-08-11T00:16:28.250Z,58.50
2018-08-11T00:21:31.505Z,58.50
2018-08-11T00:26:34.545Z,58.60
2018-08-11T00:31:37.695Z,58.60
2018-08-11T00:36:40.732Z,58.70
2018-08-11T00:41:43.760Z,58.70
2018-08-11T00:46:46.786Z,59.50
2018-08-11T00:51:49.893Z,59.30
2018-08-11T00:56:52.910Z,59.30
2018-08-11T01:01:55.978Z,59.50
2018-08-11T01:06:59.212Z,60.00
2018-08-11T01:12:02.256Z,60.10
2018-08-11T01:17:05.288Z,60.40
2018-08-11T01:22:08.442Z,60.80
2018-08-11T01:27:11.450Z,61.60
2018-08-11T01:32:14.509Z,61.90
2018-08-11T01:37:17.738Z,62.80
2018-08-11T01:42:20.755Z,62.90
2018-08-11T01:47:23.831Z,63.40
2018-08-11T01:52:26.872Z,64.00
2018-08-11T01:57:29.942Z,64.80
2018-08-11T02:02:32.958Z,65.10
2018-08-11T02:07:36.168Z,66.10
2018-08-11T02:12:39.261Z,66.20
2018-08-11T02:17:42.276Z,66.40
2018-08-11T02:22:46.092Z,66.90
2018-08-11T02:27:49.107Z,66.90
2018-08-11T02:32:52.170Z,66.90
2018-08-11T02:37:55.212Z,66.70
2018-08-11T02:42:59.222Z,66.70
2018-08-11T02:48:02.513Z,67.30
2018-08-11T02:53:05.869Z,66.80
2018-08-11T02:58:08.864Z,66.50
2018-08-11T03:03:14.761Z,66.20
2018-08-11T03:08:17.929Z,66.20
2018-08-11T03:13:24.729Z,66.00
2018-08-11T03:18:27.811Z,66.00
2018-08-11T03:23:30.843Z,65.80
2018-08-11T03:28:33.908Z,65.80
2018-08-11T03:33:36.928Z,65.80
2018-08-11T03:38:39.932Z,66.30
2018-08-11T03:43:42.946Z,66.10
2018-08-11T03:48:45.987Z,66.70
2018-08-11T03:53:49.015Z,66.90
2018-08-11T03:58:52.028Z,66.60
2018-08-11T04:03:55.181Z,66.50
2018-08-11T04:08:58.171Z,66.10
2018-08-11T04:14:01.194Z,65.80
2018-08-11T04:19:04.217Z,65.90
2018-08-11T04:24:07.569Z,65.50
2018-08-11T04:29:10.580Z,65.60
2018-08-11T04:34:13.598Z,66.40
2018-08-11T04:39:16.641Z,65.40
2018-08-11T04:44:19.663Z,65.50
2018-08-11T04:49:22.690Z,65.50
2018-08-11T04:54:25.688Z,65.30
2018-08-11T04:59:28.904Z,64.80
2018-08-11T05:04:31.919Z,64.50
2018-08-11T05:09:34.939Z,64.60
2018-08-11T05:14:38.108Z,64.70
2018-08-11T05:19:41.142Z,64.80
2018-08-11T05:24:44.140Z,64.80
2018-08-11T05:29:47.212Z,64.60
2018-08-11T05:34:50.291Z,65.40
2018-08-11T05:39:53.315Z,64.50
2018-08-11T05:44:56.414Z,63.90
2018-08-11T05:49:59.475Z,64.00
2018-08-11T05:55:02.556Z,64.10
2018-08-11T06:00:07.508Z,64.70
2018-08-11T06:05:10.540Z,65.00
2018-08-11T06:10:13.575Z,65.10
2018-08-11T06:15:16.679Z,64.10
2018-08-11T06:20:19.768Z,64.20
2018-08-11T06:25:22.891Z,64.70
2018-08-11T06:30:26.001Z,64.20
2018-08-11T06:35:29.027Z,63.80
2018-08-11T06:40:32.072Z,64.10
2018-08-11T06:45:35.240Z,62.20
2018-08-11T06:50:38.255Z,62.80
2018-08-11T06:55:41.941Z,61.00
2018-08-11T07:00:45.090Z,61.40
2018-08-11T07:05:48.107Z,60.00
2018-08-11T07:10:51.140Z,60.70
2018-08-11T07:15:54.271Z,59.90
2018-08-11T07:20:57.304Z,59.40
2018-08-11T07:26:00.395Z,58.90
2018-08-11T07:31:03.466Z,59.50
2018-08-11T07:36:07.020Z,58.60
2018-08-11T07:41:10.015Z,59.00
2018-08-11T07:46:13.088Z,59.30
2018-08-11T07:51:16.119Z,59.00
2018-08-11T07:56:19.245Z,58.30
2018-08-11T08:01:22.354Z,57.80
2018-08-11T08:06:25.350Z,57.10
2018-08-11T08:11:28.365Z,54.80
2018-08-11T08:16:31.563Z,53.80
2018-08-11T08:21:34.725Z,54.50
2018-08-11T08:26:37.853Z,54.50
2018-08-11T08:31:41.430Z,54.50
2018-08-11T08:36:45.562Z,54.50
2018-08-11T08:41:48.773Z,53.60
2018-08-11T08:46:51.812Z,53.60
2018-08-11T08:51:55.212Z,53.50
2018-08-11T08:56:59.050Z,53.70
2018-08-11T09:02:02.105Z,53.70
2018-08-11T09:07:05.152Z,54.40
2018-08-11T09:12:08.157Z,54.20
2018-08-11T09:17:11.268Z,54.30
2018-08-11T09:22:14.394Z,54.90
2018-08-11T09:27:17.440Z,53.80
2018-08-11T09:32:20.547Z,53.40
2018-08-11T09:37:23.596Z,53.40
2018-08-11T09:42:26.635Z,53.40
2018-08-11T09:47:29.684Z,52.70
2018-08-11T09:52:32.719Z,52.50
2018-08-11T09:57:35.868Z,53.60
2018-08-11T10:02:38.911Z,54.50
2018-08-11T10:07:42.012Z,55.10
2018-08-11T10:12:45.223Z,56.40
2018-08-11T10:17:48.518Z,57.50
2018-08-11T10:22:52.042Z,57.20
2018-08-11T10:27:55.443Z,56.30
2018-08-11T10:32:59.104Z,56.00
2018-08-11T10:38:02.951Z,54.80
2018-08-11T10:43:06.094Z,54.00
2018-08-11T10:48:09.167Z,54.30
2018-08-11T10:53:12.303Z,54.50
2018-08-11T10:58:15.516Z,55.10
2018-08-11T11:03:18.581Z,56.10
2018-08-11T11:08:21.643Z,57.50
2018-08-11T11:13:24.642Z,56.00
2018-08-11T11:18:27.689Z,54.60
2018-08-11T11:23:30.720Z,50.80
2018-08-11T11:28:33.751Z,49.50
2018-08-11T11:33:36.778Z,48.50
2018-08-11T11:38:39.815Z,46.00
2018-08-11T11:43:42.839Z,45.50
2018-08-11T11:48:45.876Z,44.60
2018-08-11T11:53:48.902Z,45.80
2018-08-11T11:58:52.024Z,45.50
2018-08-11T12:03:55.151Z,44.80
2018-08-11T12:08:58.194Z,44.40
2018-08-11T12:14:01.222Z,45.00
2018-08-11T12:19:04.359Z,46.90
2018-08-11T12:24:07.462Z,47.20
2018-08-11T12:29:10.666Z,47.30
2018-08-11T12:34:13.703Z,45.50
2018-08-11T12:39:16.716Z,45.70
2018-08-11T12:44:19.752Z,47.20
2018-08-11T12:49:22.767Z,45.10
2018-08-11T12:54:26.166Z,43.80
2018-08-11T12:59:29.582Z,43.00
2018-08-11T13:04:32.799Z,41.40
2018-08-11T13:09:35.836Z,41.00
2018-08-11T13:14:38.885Z,40.50
2018-08-11T13:19:41.902Z,39.10
2018-08-11T13:24:44.917Z,39.90
2018-08-11T13:29:48.004Z,40.80
2018-08-11T13:34:51.032Z,41.60
2018-08-11T13:39:54.102Z,41.70
2018-08-11T13:44:57.114Z,41.50
2018-08-11T13:50:00.128Z,40.20
2018-08-11T13:55:03.209Z,41.20
2018-08-11T14:00:07.323Z,40.10
2018-08-11T14:05:10.454Z,40.40
2018-08-11T14:10:13.564Z,39.30
2018-08-11T14:15:16.615Z,38.20
2018-08-11T14:20:19.653Z,38.20
2018-08-11T14:25:22.682Z,39.00
2018-08-11T14:30:25.752Z,39.20
2018-08-11T14:35:28.983Z,39.40
2018-08-11T14:40:31.996Z,39.40
2018-08-11T14:45:35.083Z,38.80
2018-08-11T14:50:38.252Z,39.00
2018-08-11T14:55:41.286Z,39.30
2018-08-11T15:00:44.303Z,38.70
2018-08-11T15:05:47.415Z,38.30
2018-08-11T15:10:50.772Z,38.90
2018-08-11T15:15:53.984Z,38.30
2018-08-11T15:20:57.031Z,37.50
2018-08-11T15:26:00.061Z,37.50
2018-08-11T15:31:03.130Z,37.10
2018-08-11T15:36:06.270Z,37.60
2018-08-11T15:41:09.363Z,36.20
2018-08-11T15:46:12.471Z,36.70
2018-08-11T15:51:15.515Z,36.80
2018-08-11T15:56:18.655Z,36.40
2018-08-11T16:01:21.714Z,36.80
2018-08-11T16:06:24.808Z,37.20
2018-08-11T16:11:27.826Z,37.30
2018-08-11T16:16:30.849Z,37.30
2018-08-11T16:21:33.878Z,37.50
2018-08-11T16:26:36.910Z,37.90
2018-08-11T16:31:39.927Z,37.40
2018-08-11T16:36:43.001Z,37.30
2018-08-11T16:41:46.003Z,38.20
2018-08-11T16:46:49.032Z,38.70
2018-08-11T16:51:52.052Z,38.80
2018-08-11T16:56:55.072Z,39.80
2018-08-11T17:01:58.119Z,40.30
2018-08-11T17:07:01.207Z,40.10
2018-08-11T17:12:04.231Z,39.90
2018-08-11T17:17:07.291Z,40.50
2018-08-11T17:22:10.319Z,41.60
2018-08-11T17:27:13.409Z,42.70
2018-08-11T17:32:16.542Z,43.80
2018-08-11T17:37:19.756Z,44.20
2018-08-11T17:42:22.845Z,45.50
2018-08-11T17:47:25.890Z,45.50
2018-08-11T17:52:28.922Z,45.70
2018-08-11T17:57:31.982Z,45.90
2018-08-11T18:02:35.038Z,46.00
2018-08-11T18:07:38.057Z,46.70
2018-08-11T18:12:41.105Z,47.10
2018-08-11T18:17:44.160Z,47.50
2018-08-11T18:22:47.184Z,47.50
2018-08-11T18:27:50.229Z,48.40
2018-08-11T18:32:53.415Z,49.50
2018-08-11T18:37:56.444Z,50.50
2018-08-11T18:42:59.497Z,50.90
2018-08-11T18:48:02.514Z,51.50
2018-08-11T18:53:05.718Z,51.90
2018-08-11T18:58:08.773Z,51.70
2018-08-11T19:03:11.894Z,51.90
2018-08-11T19:08:15.257Z,51.80
2018-08-11T19:13:18.304Z,51.70
2018-08-11T19:18:22.110Z,51.60
2018-08-11T19:23:27.360Z,51.70
2018-08-11T19:28:31.796Z,51.70
2018-08-11T19:33:36.905Z,51.80
2018-08-11T19:38:42.164Z,52.00
2018-08-11T19:43:46.227Z,52.20
2018-08-11T19:48:50.772Z,52.80
2018-08-11T19:53:53.934Z,53.10
2018-08-11T19:58:57.516Z,53.00
2018-08-11T20:04:00.521Z,53.20
2018-08-11T20:09:03.576Z,53.80
2018-08-11T20:14:06.608Z,53.70
2018-08-11T20:19:10.679Z,53.70
2018-08-11T20:24:16.547Z,53.70
2018-08-11T20:29:19.598Z,54.30
2018-08-11T20:34:22.628Z,54.60
2018-08-11T20:39:25.724Z,55.10
2018-08-11T20:44:28.960Z,55.40
2018-08-11T20:49:32.223Z,55.40
2018-08-11T20:54:35.384Z,55.70
2018-08-11T20:59:38.463Z,56.30
2018-08-11T21:04:41.503Z,56.40
2018-08-11T21:09:44.563Z,56.70
2018-08-11T21:14:47.588Z,56.80
2018-08-11T21:19:50.632Z,57.00
2018-08-11T21:24:53.682Z,57.40
2018-08-11T21:29:56.718Z,57.80
2018-08-11T21:34:59.828Z,57.90
2018-08-11T21:40:02.944Z,58.40
2018-08-11T21:45:06.176Z,58.70
2018-08-11T21:50:09.632Z,58.90
2018-08-11T21:55:13.472Z,59.20
2018-08-11T22:00:23.270Z,59.30
2018-08-11T22:05:26.835Z,60.50
2018-08-11T22:10:30.229Z,60.20
2018-08-11T22:15:33.272Z,60.30
2018-08-11T22:20:36.295Z,61.00
2018-08-11T22:25:39.352Z,61.90
2018-08-11T22:30:42.386Z,62.40
2018-08-11T22:35:45.460Z,62.70
2018-08-11T22:40:48.465Z,63.50
2018-08-11T22:45:51.541Z,64.40
2018-08-11T22:50:54.666Z,64.00
2018-08-11T22:55:57.759Z,63.90
2018-08-11T23:01:00.803Z,65.40
2018-08-11T23:06:03.979Z,65.10
2018-08-11T23:11:07.153Z,65.90
2018-08-11T23:16:10.327Z,65.90
2018-08-11T23:21:13.360Z,66.90
2018-08-11T23:26:16.502Z,67.20
2018-08-11T23:31:19.563Z,67.80
2018-08-11T23:36:22.623Z,68.00
2018-08-11T23:41:25.655Z,68.30
2018-08-11T23:46:28.730Z,68.90
2018-08-11T23:51:31.830Z,69.30
2018-08-11T23:56:34.872Z,70.00
